createdAt,value
2024-02-24T00:02:01.462Z,8.40
2024-02-24T00:04:24.837Z,8.30
2024-02-24T00:06:48.156Z,8.20
2024-02-24T00:09:13.183Z,8.00
2024-02-24T00:11:36.191Z,8.00
2024-02-24T00:13:59.446Z,7.90
2024-02-24T00:16:22.523Z,7.80
2024-02-24T00:18:46.037Z,7.70
2024-02-24T00:21:09.584Z,7.70
2024-02-24T00:23:31.707Z,7.60
2024-02-24T00:25:56.146Z,7.50
2024-02-24T00:28:19.370Z,7.40
2024-02-24T00:30:42.570Z,7.30
2024-02-24T00:33:06.372Z,7.20
2024-02-24T00:35:30.468Z,7.10
2024-02-24T00:37:53.433Z,7.10
2024-02-24T00:40:16.603Z,7.00
2024-02-24T00:42:41.612Z,6.90
2024-02-24T00:45:04.706Z,6.80
2024-02-24T00:47:27.807Z,6.70
2024-02-24T00:49:50.608Z,6.70
2024-02-24T00:52:13.500Z,6.60
2024-02-24T00:54:36.591Z,6.70
2024-02-24T00:57:00.188Z,6.60
2024-02-24T00:59:25.482Z,6.60
2024-02-24T01:01:49.772Z,6.60
2024-02-24T01:04:12.812Z,6.70
2024-02-24T01:06:36.162Z,6.70
2024-02-24T01:08:59.544Z,6.80
2024-02-24T01:11:22.584Z,6.90
2024-02-24T01:13:45.805Z,7.00
2024-02-24T01:16:10.782Z,6.90
2024-02-24T01:18:33.662Z,6.80
2024-02-24T01:20:57.400Z,6.90
2024-02-24T01:23:20.821Z,6.90
2024-02-24T01:25:47.756Z,6.80
2024-02-24T01:28:10.632Z,6.80
2024-02-24T01:30:33.679Z,6.70
2024-02-24T01:32:58.647Z,6.70
2024-02-24T01:35:21.945Z,6.70
2024-02-24T01:37:44.033Z,6.70
2024-02-24T01:40:08.633Z,6.70
2024-02-24T01:42:32.153Z,6.70
2024-02-24T01:44:55.483Z,6.60
2024-02-24T01:47:19.838Z,6.60
2024-02-24T01:49:45.608Z,6.60
2024-02-24T01:52:10.029Z,6.60
2024-02-24T01:54:35.959Z,6.50
2024-02-24T01:56:59.374Z,6.50
2024-02-24T01:59:22.534Z,6.50
2024-02-24T02:01:46.283Z,6.40
2024-02-24T02:04:09.203Z,6.50
2024-02-24T02:06:34.400Z,6.60
2024-02-24T02:08:57.998Z,6.80
2024-02-24T02:11:20.882Z,6.80
2024-02-24T02:13:43.915Z,6.90
2024-02-24T02:16:07.995Z,7.00
2024-02-24T02:18:32.786Z,7.10
2024-02-24T02:20:58.273Z,7.30
2024-02-24T02:23:23.150Z,7.30
2024-02-24T02:25:47.026Z,7.40
2024-02-24T02:28:10.473Z,7.50
2024-02-24T02:30:33.782Z,7.50
2024-02-24T02:32:57.014Z,7.40
2024-02-24T02:35:21.030Z,7.30
2024-02-24T02:37:44.678Z,7.30
2024-02-24T02:40:12.832Z,7.20
2024-02-24T02:42:36.033Z,7.20
2024-02-24T02:44:59.242Z,7.20
2024-02-24T02:47:24.164Z,7.10
2024-02-24T02:49:48.099Z,7.00
2024-02-24T02:52:11.067Z,6.90
2024-02-24T02:54:34.240Z,6.90
2024-02-24T02:56:58.929Z,6.90
2024-02-24T02:59:22.047Z,6.90
2024-02-24T03:01:53.042Z,6.80
2024-02-24T03:04:16.388Z,6.80
2024-02-24T03:06:39.396Z,6.70
2024-02-24T03:09:02.478Z,6.70
2024-02-24T03:11:25.555Z,6.60
2024-02-24T03:13:50.958Z,6.50
2024-02-24T03:16:14.003Z,6.50
2024-02-24T03:18:37.336Z,6.40
2024-02-24T03:21:00.603Z,6.40
2024-02-24T03:23:23.565Z,6.30
2024-02-24T03:25:46.700Z,6.30
2024-02-24T03:28:10.010Z,6.30
2024-02-24T03:30:34.576Z,6.40
2024-02-24T03:32:57.998Z,6.40
2024-02-24T03:35:21.381Z,6.30
2024-02-24T03:37:44.488Z,6.30
2024-02-24T03:40:08.889Z,6.10
2024-02-24T03:42:31.927Z,6.10
2024-02-24T03:44:55.441Z,6.00
2024-02-24T03:47:19.760Z,6.10
2024-02-24T03:49:44.010Z,6.10
2024-02-24T03:52:07.906Z,6.10
2024-02-24T03:54:31.622Z,6.10
2024-02-24T03:56:55.138Z,6.10
2024-02-24T03:59:18.428Z,6.20
2024-02-24T04:01:43.595Z,6.20
2024-02-24T04:04:08.527Z,6.20
2024-02-24T04:06:32.088Z,6.00
2024-02-24T04:08:55.493Z,5.90
2024-02-24T04:11:19.192Z,5.80
2024-02-24T04:13:42.325Z,5.70
2024-02-24T04:16:06.046Z,5.60
2024-02-24T04:18:29.352Z,5.50
2024-02-24T04:20:55.049Z,5.50
2024-02-24T04:23:18.418Z,5.40
2024-02-24T04:25:40.478Z,5.40
2024-02-24T04:28:03.741Z,5.40
2024-02-24T04:30:26.797Z,5.40
2024-02-24T04:32:49.732Z,5.40
2024-02-24T04:35:14.318Z,5.30
2024-02-24T04:37:39.187Z,5.40
2024-02-24T04:40:02.380Z,5.40
2024-02-24T04:42:26.049Z,5.40
2024-02-24T04:44:51.036Z,5.40
2024-02-24T04:47:14.042Z,5.50
2024-02-24T04:49:36.981Z,5.40
2024-02-24T04:51:59.841Z,5.40
2024-02-24T04:54:25.332Z,5.40
2024-02-24T04:56:48.766Z,5.40
2024-02-24T04:59:12.008Z,5.30
2024-02-24T05:01:35.571Z,5.30
2024-02-24T05:03:58.648Z,5.20
2024-02-24T05:06:22.664Z,5.30
2024-02-24T05:08:46.705Z,5.30
2024-02-24T05:11:11.087Z,5.30
2024-02-24T05:13:34.565Z,5.30
2024-02-24T05:15:57.555Z,5.40
2024-02-24T05:18:20.562Z,5.30
2024-02-24T05:20:43.892Z,5.60
2024-02-24T05:23:07.348Z,5.60
2024-02-24T05:25:31.954Z,5.60
2024-02-24T05:27:56.801Z,5.50
2024-02-24T05:30:20.029Z,5.60
2024-02-24T05:32:43.136Z,5.70
2024-02-24T05:35:06.886Z,5.80
2024-02-24T05:37:30.193Z,5.80
2024-02-24T05:39:53.760Z,5.80
2024-02-24T05:42:17.980Z,5.90
2024-02-24T05:44:44.903Z,6.10
2024-02-24T05:47:08.720Z,6.20
2024-02-24T05:49:31.946Z,6.30
2024-02-24T05:51:55.135Z,6.30
2024-02-24T05:54:18.092Z,6.40
2024-02-24T05:56:42.102Z,6.50
2024-02-24T05:59:05.561Z,6.60
2024-02-24T06:01:30.401Z,6.70
2024-02-24T06:03:54.241Z,6.80
2024-02-24T06:06:17.488Z,6.90
2024-02-24T06:08:41.057Z,7.00
2024-02-24T06:11:04.141Z,7.10
2024-02-24T06:13:27.401Z,7.20
2024-02-24T06:15:50.502Z,7.30
2024-02-24T06:18:17.302Z,7.40
2024-02-24T06:20:40.901Z,7.50
2024-02-24T06:23:04.004Z,7.50
2024-02-24T06:25:26.991Z,7.50
2024-02-24T06:27:50.182Z,7.60
2024-02-24T06:30:13.952Z,7.70
2024-02-24T06:32:37.278Z,7.80
2024-02-24T06:35:02.503Z,7.90
2024-02-24T06:37:25.732Z,7.90
2024-02-24T06:39:48.891Z,7.90
2024-02-24T06:42:12.132Z,8.00
2024-02-24T06:44:35.095Z,8.10
2024-02-24T06:46:58.280Z,8.10
2024-02-24T06:49:21.838Z,8.10
2024-02-24T06:51:46.287Z,8.20
2024-02-24T06:54:09.366Z,8.20
2024-02-24T06:56:32.273Z,8.00
2024-02-24T06:58:55.432Z,8.00
2024-02-24T07:01:24.277Z,8.10
2024-02-24T07:03:47.120Z,8.20
2024-02-24T07:06:10.319Z,8.30
2024-02-24T07:08:35.376Z,8.50
2024-02-24T07:10:58.449Z,8.60
2024-02-24T07:13:22.022Z,8.70
2024-02-24T07:15:45.447Z,9.00
2024-02-24T07:18:08.756Z,9.30
2024-02-24T07:20:32.078Z,9.80
2024-02-24T07:22:55.445Z,10.50
2024-02-24T07:25:20.756Z,11.10
2024-02-24T07:27:43.780Z,11.50
2024-02-24T07:30:08.501Z,11.90
2024-02-24T07:32:31.822Z,12.20
2024-02-24T07:34:55.403Z,12.50
2024-02-24T07:37:18.930Z,12.90
2024-02-24T07:39:42.320Z,13.30
2024-02-24T07:42:07.610Z,13.70
2024-02-24T07:44:30.599Z,14.10
2024-02-24T07:46:53.749Z,14.50
2024-02-24T07:49:16.944Z,14.80
2024-02-24T07:51:40.489Z,15.10
2024-02-24T07:54:03.859Z,15.50
2024-02-24T07:56:28.810Z,15.70
2024-02-24T07:58:54.037Z,16.20
2024-02-24T08:01:17.264Z,16.70
2024-02-24T08:03:40.334Z,17.00
2024-02-24T08:06:03.206Z,17.00
2024-02-24T08:08:26.563Z,17.10
2024-02-24T08:10:50.118Z,17.20
2024-02-24T08:13:13.321Z,17.20
2024-02-24T08:15:38.123Z,17.10
2024-02-24T08:18:01.527Z,17.10
2024-02-24T08:20:24.684Z,17.20
2024-02-24T08:22:48.795Z,17.30
2024-02-24T08:25:12.219Z,17.20
2024-02-24T08:27:35.544Z,17.30
2024-02-24T08:29:58.476Z,17.60
2024-02-24T08:32:22.927Z,17.90
2024-02-24T08:34:46.290Z,18.10
2024-02-24T08:37:10.057Z,18.10
2024-02-24T08:39:34.775Z,18.10
2024-02-24T08:41:58.199Z,18.10
2024-02-24T08:44:21.891Z,18.00
2024-02-24T08:46:45.012Z,18.10
2024-02-24T08:49:10.267Z,18.60
2024-02-24T08:51:33.561Z,19.20
2024-02-24T08:53:57.244Z,19.40
2024-02-24T08:56:22.089Z,19.60
2024-02-24T08:58:45.373Z,19.90
2024-02-24T09:01:08.764Z,20.00
2024-02-24T09:03:32.067Z,20.20
2024-02-24T09:05:56.611Z,20.20
2024-02-24T09:08:20.090Z,20.10
2024-02-24T09:10:43.642Z,20.30
2024-02-24T09:13:07.217Z,20.80
2024-02-24T09:15:32.331Z,21.30
2024-02-24T09:17:56.792Z,21.60
2024-02-24T09:20:20.086Z,21.50
2024-02-24T09:22:45.159Z,21.60
2024-02-24T09:25:09.001Z,21.70
2024-02-24T09:27:33.100Z,22.00
2024-02-24T09:29:56.416Z,23.00
2024-02-24T09:32:20.307Z,25.20
2024-02-24T09:34:43.634Z,26.60
2024-02-24T09:37:07.757Z,27.30
2024-02-24T09:39:32.535Z,28.80
2024-02-24T09:41:55.551Z,29.20
2024-02-24T09:44:19.930Z,29.40
2024-02-24T09:46:44.788Z,29.80
2024-02-24T09:49:08.594Z,29.70
2024-02-24T09:51:34.539Z,30.60
2024-02-24T09:53:57.780Z,30.60
2024-02-24T09:56:25.671Z,29.80
2024-02-24T09:58:50.887Z,29.20
2024-02-24T10:01:15.111Z,28.50
2024-02-24T10:03:42.339Z,29.20
2024-02-24T10:06:05.717Z,29.60
2024-02-24T10:08:28.721Z,29.50
2024-02-24T10:10:52.800Z,29.70
2024-02-24T10:13:20.841Z,29.40
2024-02-24T10:15:45.456Z,28.90
2024-02-24T10:18:08.649Z,28.10
2024-02-24T10:20:32.673Z,27.00
2024-02-24T10:22:56.215Z,26.60
2024-02-24T10:25:19.319Z,26.00
2024-02-24T10:27:42.720Z,25.50
2024-02-24T10:30:10.950Z,25.40
2024-02-24T10:32:35.578Z,25.50
2024-02-24T10:35:00.018Z,25.40
2024-02-24T10:37:23.433Z,25.00
2024-02-24T10:39:47.366Z,25.10
2024-02-24T10:42:11.050Z,25.00
2024-02-24T10:44:36.449Z,25.30
2024-02-24T10:47:01.320Z,24.90
2024-02-24T10:49:24.438Z,24.70
2024-02-24T10:51:51.435Z,24.80
2024-02-24T10:54:18.839Z,25.20
2024-02-24T10:56:42.977Z,24.90
2024-02-24T10:59:09.926Z,25.00
2024-02-24T11:01:32.925Z,25.60
2024-02-24T11:03:58.403Z,26.90
2024-02-24T11:06:48.517Z,28.40
2024-02-24T11:09:17.025Z,29.90
2024-02-24T11:11:40.279Z,29.60
2024-02-24T11:14:10.220Z,29.10
2024-02-24T11:16:37.526Z,28.50
2024-02-24T11:19:02.535Z,28.30
2024-02-24T11:21:59.276Z,27.90
2024-02-24T11:24:23.180Z,27.90
2024-02-24T11:26:47.327Z,27.90
2024-02-24T11:29:10.455Z,27.90
2024-02-24T11:31:35.500Z,28.00
2024-02-24T11:34:07.399Z,27.60
2024-02-24T11:36:33.250Z,27.10
2024-02-24T11:38:58.814Z,26.80
2024-02-24T11:41:22.162Z,26.10
2024-02-24T11:43:45.428Z,26.30
2024-02-24T11:46:08.547Z,26.90
2024-02-24T11:48:32.358Z,27.00
2024-02-24T11:50:58.048Z,26.60
2024-02-24T11:53:21.993Z,26.10
2024-02-24T11:55:45.910Z,26.00
2024-02-24T11:58:10.420Z,25.40
2024-02-24T12:00:33.915Z,25.10
2024-02-24T12:02:57.006Z,25.30
2024-02-24T12:05:20.482Z,24.90
2024-02-24T12:07:46.225Z,24.40
2024-02-24T12:10:10.745Z,23.90
2024-02-24T12:12:33.799Z,23.60
2024-02-24T12:14:57.032Z,23.50
2024-02-24T12:17:21.946Z,23.40
2024-02-24T12:19:46.818Z,23.30
2024-02-24T12:22:11.441Z,23.20
2024-02-24T12:24:36.334Z,23.20
2024-02-24T12:27:03.681Z,23.10
2024-02-24T12:29:25.635Z,22.90
2024-02-24T12:31:48.738Z,22.70
2024-02-24T12:34:11.848Z,22.20
2024-02-24T12:36:35.286Z,21.50
2024-02-24T12:38:58.613Z,20.80
2024-02-24T12:41:23.610Z,20.60
2024-02-24T12:43:46.974Z,20.30
2024-02-24T12:46:09.377Z,20.10
2024-02-24T12:48:33.080Z,19.90
2024-02-24T12:50:56.345Z,19.70
2024-02-24T12:53:20.969Z,19.50
2024-02-24T12:55:44.363Z,19.30
2024-02-24T12:58:08.952Z,19.20
2024-02-24T13:00:32.204Z,19.20
2024-02-24T13:02:57.497Z,19.20
2024-02-24T13:05:20.881Z,19.10
2024-02-24T13:07:44.388Z,18.90
2024-02-24T13:10:08.134Z,18.90
2024-02-24T13:12:30.926Z,18.90
2024-02-24T13:14:55.863Z,18.70
2024-02-24T13:17:21.591Z,18.40
2024-02-24T13:19:44.751Z,18.10
2024-02-24T13:22:08.004Z,17.90
2024-02-24T13:24:30.805Z,17.80
2024-02-24T13:26:54.247Z,17.80
2024-02-24T13:29:17.656Z,17.50
2024-02-24T13:31:42.584Z,17.30
2024-02-24T13:34:06.034Z,17.10
2024-02-24T13:36:29.370Z,16.90
2024-02-24T13:38:52.512Z,16.90
2024-02-24T13:41:15.711Z,16.90
2024-02-24T13:43:39.359Z,16.80
2024-02-24T13:46:03.035Z,16.80
2024-02-24T13:48:27.969Z,16.70
2024-02-24T13:50:51.367Z,16.70
2024-02-24T13:53:14.536Z,16.50
2024-02-24T13:55:38.175Z,16.40
2024-02-24T13:58:04.397Z,16.30
2024-02-24T14:00:27.729Z,16.10
2024-02-24T14:02:51.424Z,16.00
2024-02-24T14:05:16.804Z,15.90
2024-02-24T14:07:40.408Z,15.80
2024-02-24T14:10:03.885Z,15.70
2024-02-24T14:12:27.246Z,15.60
2024-02-24T14:14:50.813Z,15.50
2024-02-24T14:17:14.417Z,15.40
2024-02-24T14:19:37.460Z,15.30
2024-02-24T14:22:02.323Z,15.20
2024-02-24T14:24:25.204Z,15.20
2024-02-24T14:26:48.959Z,15.10
2024-02-24T14:29:13.968Z,15.00
2024-02-24T14:31:37.587Z,14.90
2024-02-24T14:34:01.361Z,14.90
2024-02-24T14:36:24.869Z,14.70
2024-02-24T14:38:49.864Z,14.70
2024-02-24T14:41:13.206Z,14.60
2024-02-24T14:43:36.416Z,14.50
2024-02-24T14:45:59.701Z,14.40
2024-02-24T14:48:23.525Z,14.30
2024-02-24T14:50:47.053Z,14.20
2024-02-24T14:53:10.383Z,14.10
2024-02-24T14:55:35.234Z,14.00
2024-02-24T14:57:58.621Z,14.00
2024-02-24T15:00:24.031Z,13.90
2024-02-24T15:02:58.276Z,13.80
2024-02-24T15:05:28.869Z,13.70
2024-02-24T15:07:52.177Z,13.70
2024-02-24T15:10:15.315Z,13.70
2024-02-24T15:12:39.816Z,13.60
2024-02-24T15:15:03.413Z,13.50
2024-02-24T15:17:26.914Z,13.50
2024-02-24T15:19:49.903Z,13.40
2024-02-24T15:22:13.031Z,13.40
2024-02-24T15:24:36.559Z,13.40
2024-02-24T15:26:59.816Z,13.30
2024-02-24T15:29:24.522Z,13.40
2024-02-24T15:31:47.516Z,13.40
2024-02-24T15:34:11.110Z,13.40
2024-02-24T15:36:34.501Z,13.40
2024-02-24T15:38:57.999Z,13.30
2024-02-24T15:41:22.041Z,13.40
2024-02-24T15:43:45.205Z,13.40
2024-02-24T15:46:09.899Z,13.30
2024-02-24T15:48:32.983Z,13.20
2024-02-24T15:50:56.583Z,13.10
2024-02-24T15:53:20.411Z,13.10
2024-02-24T15:55:43.570Z,13.00
2024-02-24T15:58:06.995Z,13.10
2024-02-24T16:00:29.856Z,13.10
2024-02-24T16:02:54.334Z,13.10
2024-02-24T16:05:23.143Z,13.00
2024-02-24T16:07:46.138Z,13.00
2024-02-24T16:10:10.637Z,13.00
2024-02-24T16:12:33.607Z,12.90
2024-02-24T16:14:56.671Z,12.90
2024-02-24T16:17:19.915Z,12.80
2024-02-24T16:19:44.811Z,12.90
2024-02-24T16:22:08.125Z,13.00
2024-02-24T16:24:31.422Z,13.00
2024-02-24T16:26:57.194Z,12.90
2024-02-24T16:29:20.400Z,12.90
2024-02-24T16:31:43.826Z,13.00
2024-02-24T16:34:09.107Z,12.90
2024-02-24T16:36:35.196Z,12.80
2024-02-24T16:38:58.636Z,12.80
2024-02-24T16:41:21.668Z,12.80
2024-02-24T16:43:44.493Z,12.80
2024-02-24T16:46:07.841Z,12.80
2024-02-24T16:48:31.399Z,12.70
2024-02-24T16:50:54.780Z,12.70
2024-02-24T16:53:19.536Z,12.60
2024-02-24T16:55:42.796Z,12.60
2024-02-24T16:58:06.905Z,12.50
2024-02-24T17:00:30.289Z,12.50
2024-02-24T17:02:53.476Z,12.50
2024-02-24T17:05:17.128Z,12.60
2024-02-24T17:07:40.401Z,12.60
2024-02-24T17:10:06.311Z,12.60
2024-02-24T17:12:31.294Z,12.50
2024-02-24T17:14:54.629Z,12.60
2024-02-24T17:17:19.502Z,12.60
2024-02-24T17:19:42.741Z,12.60
2024-02-24T17:22:06.917Z,12.60
2024-02-24T17:24:30.228Z,12.50
2024-02-24T17:26:56.524Z,12.40
2024-02-24T17:29:20.071Z,12.30
2024-02-24T17:31:43.139Z,12.30
2024-02-24T17:34:06.454Z,12.20
2024-02-24T17:36:31.225Z,12.20
2024-02-24T17:38:54.441Z,12.20
2024-02-24T17:41:20.481Z,12.10
2024-02-24T17:43:45.261Z,12.20
2024-02-24T17:46:08.297Z,12.20
2024-02-24T17:48:31.724Z,12.30
2024-02-24T17:50:54.858Z,12.30
2024-02-24T17:53:19.946Z,12.20
2024-02-24T17:55:43.026Z,12.30
2024-02-24T17:58:08.263Z,12.40
2024-02-24T18:00:33.014Z,12.40
2024-02-24T18:02:56.062Z,12.40
2024-02-24T18:05:20.287Z,12.40
2024-02-24T18:07:43.792Z,12.20
2024-02-24T18:10:07.942Z,12.10
2024-02-24T18:12:37.091Z,12.10
2024-02-24T18:15:00.581Z,12.20
2024-02-24T18:17:25.823Z,12.30
2024-02-24T18:19:49.025Z,12.20
2024-02-24T18:22:11.887Z,12.10
2024-02-24T18:24:35.090Z,12.00
2024-02-24T18:26:58.844Z,12.00
2024-02-24T18:29:21.844Z,11.90
2024-02-24T18:31:45.427Z,11.90
2024-02-24T18:34:10.536Z,11.80
2024-02-24T18:36:34.199Z,11.80
2024-02-24T18:38:57.496Z,11.70
2024-02-24T18:41:21.073Z,11.70
2024-02-24T18:43:44.625Z,11.60
2024-02-24T18:46:08.067Z,11.50
2024-02-24T18:48:31.146Z,11.50
2024-02-24T18:50:56.501Z,11.50
2024-02-24T18:53:19.623Z,11.50
2024-02-24T18:55:42.882Z,11.40
2024-02-24T18:58:06.431Z,11.40
2024-02-24T19:00:30.288Z,11.40
2024-02-24T19:02:53.511Z,11.30
2024-02-24T19:05:16.674Z,11.30
2024-02-24T19:07:44.123Z,11.30
2024-02-24T19:10:07.884Z,11.30
2024-02-24T19:12:31.263Z,11.30
2024-02-24T19:14:57.566Z,11.30
2024-02-24T19:17:21.774Z,11.30
2024-02-24T19:19:45.858Z,11.30
2024-02-24T19:22:08.912Z,11.20
2024-02-24T19:24:33.598Z,11.20
2024-02-24T19:26:56.748Z,11.10
2024-02-24T19:29:21.036Z,11.10
2024-02-24T19:31:44.312Z,11.10
2024-02-24T19:34:10.989Z,11.00
2024-02-24T19:36:33.858Z,11.00
2024-02-24T19:39:04.030Z,10.90
2024-02-24T19:41:35.524Z,11.00
2024-02-24T19:43:59.295Z,11.00
2024-02-24T19:46:22.738Z,10.90
2024-02-24T19:48:46.318Z,10.90
2024-02-24T19:51:14.061Z,10.90
2024-02-24T19:53:37.327Z,10.90
2024-02-24T19:56:00.303Z,10.80
2024-02-24T19:58:33.098Z,10.80
2024-02-24T20:01:01.111Z,10.80
2024-02-24T20:03:24.311Z,10.70
2024-02-24T20:05:47.197Z,10.70
2024-02-24T20:08:11.025Z,10.70
2024-02-24T20:10:34.241Z,10.70
2024-02-24T20:12:57.576Z,10.70
2024-02-24T20:15:22.561Z,10.80
2024-02-24T20:17:45.519Z,10.80
2024-02-24T20:20:10.074Z,10.80
2024-02-24T20:22:32.880Z,10.70
2024-02-24T20:24:56.188Z,10.70
2024-02-24T20:27:18.991Z,10.70
2024-02-24T20:29:42.146Z,10.70
2024-02-24T20:32:07.769Z,10.60
2024-02-24T20:34:30.966Z,10.60
2024-02-24T20:36:54.449Z,10.50
2024-02-24T20:39:17.462Z,10.50
2024-02-24T20:41:44.068Z,10.50
2024-02-24T20:44:07.338Z,10.50
2024-02-24T20:46:30.534Z,10.60
2024-02-24T20:48:55.139Z,10.60
2024-02-24T20:51:18.260Z,10.50
2024-02-24T20:53:41.330Z,10.60
2024-02-24T20:56:04.557Z,10.60
2024-02-24T20:58:27.466Z,10.60
2024-02-24T21:00:50.395Z,10.60
2024-02-24T21:03:14.071Z,10.70
2024-02-24T21:05:39.184Z,10.60
2024-02-24T21:08:02.238Z,10.60
2024-02-24T21:10:25.641Z,10.60
2024-02-24T21:12:48.986Z,10.60
2024-02-24T21:15:12.207Z,10.60
2024-02-24T21:17:35.901Z,10.70
2024-02-24T21:20:05.015Z,10.70
2024-02-24T21:22:30.111Z,10.70
2024-02-24T21:24:53.115Z,10.60
2024-02-24T21:27:16.036Z,10.60
2024-02-24T21:29:39.251Z,10.80
2024-02-24T21:32:02.684Z,10.70
2024-02-24T21:34:25.823Z,10.70
2024-02-24T21:36:48.926Z,10.70
2024-02-24T21:39:13.787Z,10.60
2024-02-24T21:41:38.645Z,10.70
2024-02-24T21:44:01.788Z,10.70
2024-02-24T21:46:25.173Z,10.70
2024-02-24T21:48:49.794Z,10.70
2024-02-24T21:51:13.395Z,10.70
2024-02-24T21:53:36.671Z,10.70
2024-02-24T21:56:01.421Z,10.70
2024-02-24T21:58:24.533Z,10.70
2024-02-24T22:00:50.175Z,10.70
2024-02-24T22:03:14.286Z,10.60
2024-02-24T22:05:37.323Z,10.60
2024-02-24T22:08:00.695Z,10.60
2024-02-24T22:10:24.979Z,10.60
2024-02-24T22:12:49.731Z,10.60
2024-02-24T22:15:14.120Z,10.60
2024-02-24T22:17:38.751Z,10.60
2024-02-24T22:20:03.358Z,10.60
2024-02-24T22:22:26.694Z,10.60
2024-02-24T22:24:49.859Z,10.60
2024-02-24T22:27:13.197Z,10.60
2024-02-24T22:29:41.568Z,10.60
2024-02-24T22:32:04.754Z,10.60
2024-02-24T22:34:27.911Z,10.60
2024-02-24T22:36:50.961Z,10.60
2024-02-24T22:39:14.158Z,10.60
2024-02-24T22:41:37.316Z,10.70
2024-02-24T22:44:00.406Z,10.70
2024-02-24T22:46:27.332Z,10.70
2024-02-24T22:48:50.734Z,10.70
2024-02-24T22:51:13.950Z,10.70
2024-02-24T22:53:37.549Z,10.70
2024-02-24T22:56:00.680Z,10.70
2024-02-24T22:58:23.620Z,10.70
2024-02-24T23:00:46.650Z,10.60
2024-02-24T23:03:11.312Z,10.60
2024-02-24T23:05:35.915Z,10.70
2024-02-24T23:07:58.936Z,10.70
2024-02-24T23:10:22.344Z,10.70
2024-02-24T23:12:45.456Z,10.70
2024-02-24T23:15:10.201Z,10.70
2024-02-24T23:17:33.544Z,10.70
2024-02-24T23:19:58.724Z,10.70
2024-02-24T23:22:21.912Z,10.60
2024-02-24T23:24:45.352Z,10.60
2024-02-24T23:27:08.313Z,10.50
2024-02-24T23:29:31.417Z,10.50
2024-02-24T23:31:54.637Z,10.50
2024-02-24T23:34:17.864Z,10.50
2024-02-24T23:36:42.737Z,10.40
2024-02-24T23:39:07.963Z,10.40
2024-02-24T23:41:31.943Z,10.40
2024-02-24T23:43:55.486Z,10.40
2024-02-24T23:46:18.608Z,10.40
2024-02-24T23:48:45.499Z,10.40
2024-02-24T23:51:10.163Z,10.50
2024-02-24T23:53:34.741Z,10.50
2024-02-24T23:55:57.887Z,10.50
2024-02-24T23:58:21.320Z,10.50
